sensor_id;sensor_type;location;lat;lon;timestamp;pressure;altitude;pressure_sealevel;temperature;humidity
59063;BME280;44851;45.648;9.004;2022-09-17T08:40:20;98051.69;;;22.48;16.18
59063;BME280;44851;45.648;9.004;2022-09-17T08:42:54;98041.28;;;22.58;15.67
59063;BME280;44851;45.648;9.004;2022-09-17T08:45:22;98045.19;;;22.39;16.21
59063;BME280;44851;45.648;9.004;2022-09-17T08:47:48;98045.81;;;22.91;15.89
59063;BME280;44851;45.648;9.004;2022-09-17T08:50:31;98048.94;;;22.71;16.14
59063;BME280;44851;45.648;9.004;2022-09-17T08:55:48;98051.88;;;23.42;15.46
59063;BME280;44851;45.648;9.004;2022-09-17T09:06:38;98082.47;;;23.61;14.34
59063;BME280;44851;45.648;9.004;2022-09-17T09:09:16;98091.53;;;23.44;15.55
59063;BME280;44851;45.648;9.004;2022-09-17T09:11:43;98086.50;;;24.08;15.21
59063;BME280;44851;45.648;9.004;2022-09-17T09:16:51;98092.56;;;23.81;15.83
59063;BME280;44851;45.648;9.004;2022-09-17T09:19:29;98103.94;;;24.43;15.76
59063;BME280;44851;45.648;9.004;2022-09-17T09:30:15;98112.09;;;24.58;15.92
59063;BME280;44851;45.648;9.004;2022-09-17T09:33:12;98112.50;;;24.50;14.97
59063;BME280;44851;45.648;9.004;2022-09-17T09:35:41;98112.75;;;24.70;14.12
59063;BME280;44851;45.648;9.004;2022-09-17T09:38:42;98116.75;;;24.24;13.49
59063;BME280;44851;45.648;9.004;2022-09-17T09:41:38;98113.09;;;24.52;14.78
59063;BME280;44851;45.648;9.004;2022-09-17T09:44:08;98128.69;;;24.65;15.06
59063;BME280;44851;45.648;9.004;2022-09-17T09:49:16;98119.63;;;24.66;13.41
59063;BME280;44851;45.648;9.004;2022-09-17T10:03:05;98144.25;;;25.05;15.23
59063;BME280;44851;45.648;9.004;2022-09-17T10:05:34;98137.91;;;25.49;15.92
59063;BME280;44851;45.648;9.004;2022-09-17T10:08:10;98151.78;;;25.51;14.26
59063;BME280;44851;45.648;9.004;2022-09-17T10:10:52;98146.63;;;25.34;13.92
59063;BME280;44851;45.648;9.004;2022-09-17T10:13:18;98157.38;;;25.44;13.41
59063;BME280;44851;45.648;9.004;2022-09-17T10:15:44;98158.72;;;25.52;14.18
59063;BME280;44851;45.648;9.004;2022-09-17T10:18:23;98164.75;;;25.69;14.71
59063;BME280;44851;45.648;9.004;2022-09-17T10:20:57;98175.34;;;25.59;13.66
59063;BME280;44851;45.648;9.004;2022-09-17T10:23:28;98177.66;;;25.87;13.81
59063;BME280;44851;45.648;9.004;2022-09-17T10:25:54;98177.72;;;25.55;13.39
59063;BME280;44851;45.648;9.004;2022-09-17T10:30:59;98175.00;;;25.18;13.06
59063;BME280;44851;45.648;9.004;2022-09-17T10:33:30;98178.44;;;25.46;14.45
59063;BME280;44851;45.648;9.004;2022-09-17T10:35:59;98186.44;;;25.13;12.87
59063;BME280;44851;45.648;9.004;2022-09-17T10:41:21;98188.81;;;25.10;14.02
59063;BME280;44851;45.648;9.004;2022-09-17T10:43:47;98195.47;;;25.39;13.56
59063;BME280;44851;45.648;9.004;2022-09-17T10:46:33;98206.22;;;25.17;13.17
59063;BME280;44851;45.648;9.004;2022-09-17T10:49:09;98211.88;;;25.21;13.29
59063;BME280;44851;45.648;9.004;2022-09-17T10:51:35;98201.31;;;24.77;12.46
59063;BME280;44851;45.648;9.004;2022-09-17T10:54:04;98192.75;;;25.02;12.66
59063;BME280;44851;45.648;9.004;2022-09-17T10:56:35;98206.28;;;25.55;13.60
59063;BME280;44851;45.648;9.004;2022-09-17T11:01:55;98202.88;;;25.27;12.89
59063;BME280;44851;45.648;9.004;2022-09-17T11:15:11;98204.63;;;25.86;14.41
59063;BME280;44851;45.648;9.004;2022-09-17T11:26:31;98207.22;;;26.18;13.35
59063;BME280;44851;45.648;9.004;2022-09-17T11:29:49;98218.28;;;26.47;14.57
59063;BME280;44851;45.648;9.004;2022-09-17T11:35:14;98215.38;;;26.49;12.42
59063;BME280;44851;45.648;9.004;2022-09-17T11:37:42;98235.22;;;26.73;13.25
59063;BME280;44851;45.648;9.004;2022-09-17T11:40:38;98236.97;;;25.89;26.63
59063;BME280;44851;45.648;9.004;2022-09-17T11:45:54;98240.38;;;26.27;27.54
59063;BME280;44851;45.648;9.004;2022-09-17T11:48:27;98239.47;;;26.54;27.00
59063;BME280;44851;45.648;9.004;2022-09-17T11:51:02;98226.94;;;26.69;26.44
59063;BME280;44851;45.648;9.004;2022-09-17T11:53:35;98221.13;;;26.25;26.02
59063;BME280;44851;45.648;9.004;2022-09-17T11:58:31;98216.28;;;25.75;25.96
59063;BME280;44851;45.648;9.004;2022-09-17T12:01:39;98226.91;;;25.64;24.78
59063;BME280;44851;45.648;9.004;2022-09-17T12:04:32;98223.13;;;26.45;23.37
59063;BME280;44851;45.648;9.004;2022-09-17T12:09:42;98233.03;;;26.50;24.65
59063;BME280;44851;45.648;9.004;2022-09-17T12:12:17;98227.09;;;26.42;26.31
59063;BME280;44851;45.648;9.004;2022-09-17T12:14:48;98204.44;;;25.98;26.89
59063;BME280;44851;45.648;9.004;2022-09-17T12:17:21;98201.59;;;26.19;27.38
59063;BME280;44851;45.648;9.004;2022-09-17T12:19:53;98222.56;;;25.90;28.47
59063;BME280;44851;45.648;9.004;2022-09-17T12:22:30;98229.06;;;25.73;27.31
59063;BME280;44851;45.648;9.004;2022-09-17T12:24:58;98222.41;;;26.12;27.88
59063;BME280;44851;45.648;9.004;2022-09-17T12:27:36;98196.53;;;25.76;26.81
59063;BME280;44851;45.648;9.004;2022-09-17T12:30:09;98214.41;;;26.17;27.20
59063;BME280;44851;45.648;9.004;2022-09-17T12:35:22;98209.88;;;26.18;25.41
59063;BME280;44851;45.648;9.004;2022-09-17T12:46:48;98201.41;;;26.41;24.88
59063;BME280;44851;45.648;9.004;2022-09-17T12:49:34;98216.19;;;25.97;25.57
59063;BME280;44851;45.648;9.004;2022-09-17T12:52:32;98232.91;;;26.29;25.17
59063;BME280;44851;45.648;9.004;2022-09-17T12:55:38;98211.38;;;25.99;24.95
59063;BME280;44851;45.648;9.004;2022-09-17T13:01:03;98203.31;;;25.88;25.52
59063;BME280;44851;45.648;9.004;2022-09-17T13:03:41;98209.28;;;25.63;25.67
59063;BME280;44851;45.648;9.004;2022-09-17T13:12:15;98206.50;;;25.48;23.44
59063;BME280;44851;45.648;9.004;2022-09-17T13:14:53;98202.31;;;26.05;23.64
59063;BME280;44851;45.648;9.004;2022-09-17T13:17:38;98214.22;;;26.34;21.90
59063;BME280;44851;45.648;9.004;2022-09-17T13:20:26;98226.59;;;26.45;22.85
59063;BME280;44851;45.648;9.004;2022-09-17T13:22:57;98210.63;;;26.08;14.31
59063;BME280;44851;45.648;9.004;2022-09-17T13:25:23;98207.63;;;25.94;13.67
59063;BME280;44851;45.648;9.004;2022-09-17T13:27:50;98205.53;;;26.02;13.60
59063;BME280;44851;45.648;9.004;2022-09-17T13:30:58;98206.56;;;25.58;13.09
59063;BME280;44851;45.648;9.004;2022-09-17T13:33:50;98212.50;;;25.33;11.98
59063;BME280;44851;45.648;9.004;2022-09-17T13:36:48;98204.94;;;25.20;12.16
59063;BME280;44851;45.648;9.004;2022-09-17T13:44:41;98214.38;;;25.70;12.75
59063;BME280;44851;45.648;9.004;2022-09-17T13:47:12;98216.44;;;25.58;13.08
59063;BME280;44851;45.648;9.004;2022-09-17T13:49:56;98216.66;;;25.88;13.57
59063;BME280;44851;45.648;9.004;2022-09-17T13:52:39;98216.22;;;26.02;12.61
59063;BME280;44851;45.648;9.004;2022-09-17T13:55:06;98214.63;;;26.06;12.84
59063;BME280;44851;45.648;9.004;2022-09-17T13:57:42;98221.13;;;26.25;13.40
59063;BME280;44851;45.648;9.004;2022-09-17T14:21:55;98219.63;;;24.96;13.22
59063;BME280;44851;45.648;9.004;2022-09-17T14:27:11;98221.53;;;25.00;13.05
59063;BME280;44851;45.648;9.004;2022-09-17T14:30:05;98221.75;;;24.94;13.29
59063;BME280;44851;45.648;9.004;2022-09-17T14:35:24;98224.88;;;24.90;13.61
59063;BME280;44851;45.648;9.004;2022-09-17T14:38:02;98221.38;;;24.85;13.90
59063;BME280;44851;45.648;9.004;2022-09-17T14:40:32;98227.00;;;24.88;13.99
59063;BME280;44851;45.648;9.004;2022-09-17T14:42:59;98231.88;;;24.97;14.05
59063;BME280;44851;45.648;9.004;2022-09-17T14:45:31;98220.56;;;24.84;14.12
59063;BME280;44851;45.648;9.004;2022-09-17T14:48:27;98211.06;;;24.67;14.18
59063;BME280;44851;45.648;9.004;2022-09-17T14:53:41;98222.53;;;24.28;13.62
59063;BME280;44851;45.648;9.004;2022-09-17T14:56:09;98217.78;;;24.08;13.92
59063;BME280;44851;45.648;9.004;2022-09-17T14:58:37;98221.38;;;24.19;14.79
59063;BME280;44851;45.648;9.004;2022-09-17T15:01:04;98207.56;;;24.00;14.06
59063;BME280;44851;45.648;9.004;2022-09-17T15:03:29;98207.47;;;23.95;14.32
59063;BME280;44851;45.648;9.004;2022-09-17T15:05:55;98208.69;;;23.87;14.28
59063;BME280;44851;45.648;9.004;2022-09-17T15:08:23;98210.41;;;23.60;14.42
59063;BME280;44851;45.648;9.004;2022-09-17T15:13:24;98204.28;;;23.43;14.31
59063;BME280;44851;45.648;9.004;2022-09-17T15:15:57;98206.13;;;23.25;14.79
59063;BME280;44851;45.648;9.004;2022-09-17T15:18:48;98204.03;;;23.27;14.50
59063;BME280;44851;45.648;9.004;2022-09-17T15:21:32;98207.75;;;23.26;14.61
59063;BME280;44851;45.648;9.004;2022-09-17T15:24:07;98206.34;;;23.24;14.80
59063;BME280;44851;45.648;9.004;2022-09-17T15:26:39;98209.63;;;22.97;14.71
59063;BME280;44851;45.648;9.004;2022-09-17T15:29:06;98223.19;;;23.13;15.59
59063;BME280;44851;45.648;9.004;2022-09-17T15:31:34;98215.59;;;23.21;14.86
59063;BME280;44851;45.648;9.004;2022-09-17T15:34:01;98216.00;;;23.13;14.76
59063;BME280;44851;45.648;9.004;2022-09-17T15:36:27;98214.44;;;23.00;15.06
59063;BME280;44851;45.648;9.004;2022-09-17T15:38:54;98215.81;;;22.74;15.14
59063;BME280;44851;45.648;9.004;2022-09-17T15:41:27;98223.59;;;22.76;15.30
59063;BME280;44851;45.648;9.004;2022-09-17T15:43:53;98225.41;;;23.04;15.37
59063;BME280;44851;45.648;9.004;2022-09-17T15:46:25;98215.22;;;22.84;15.11
59063;BME280;44851;45.648;9.004;2022-09-17T15:48:57;98211.38;;;22.92;15.46
59063;BME280;44851;45.648;9.004;2022-09-17T15:51:24;98211.38;;;22.92;15.50
59063;BME280;44851;45.648;9.004;2022-09-17T15:54:24;98222.97;;;22.86;15.60
59063;BME280;44851;45.648;9.004;2022-09-17T15:56:55;98229.56;;;22.83;15.48
59063;BME280;44851;45.648;9.004;2022-09-17T15:59:30;98236.88;;;22.76;15.54
59063;BME280;44851;45.648;9.004;2022-09-17T16:01:59;98244.63;;;22.66;15.64
59063;BME280;44851;45.648;9.004;2022-09-17T16:04:32;98252.72;;;22.71;16.13
59063;BME280;44851;45.648;9.004;2022-09-17T16:09:54;98254.78;;;22.69;14.79
59063;BME280;44851;45.648;9.004;2022-09-17T16:12:25;98260.47;;;22.49;14.54
59063;BME280;44851;45.648;9.004;2022-09-17T16:14:55;98254.56;;;22.47;15.11
59063;BME280;44851;45.648;9.004;2022-09-17T16:17:30;98260.47;;;22.49;15.00
59063;BME280;44851;45.648;9.004;2022-09-17T16:20:20;98265.25;;;22.12;15.06
59063;BME280;44851;45.648;9.004;2022-09-17T16:22:48;98261.44;;;22.19;14.35
59063;BME280;44851;45.648;9.004;2022-09-17T16:25:14;98270.66;;;22.40;14.81
59063;BME280;44851;45.648;9.004;2022-09-17T16:27:50;98266.53;;;22.09;14.81
59063;BME280;44851;45.648;9.004;2022-09-17T16:30:21;98269.50;;;22.24;14.90
59063;BME280;44851;45.648;9.004;2022-09-17T16:32:47;98271.94;;;22.14;15.16
59063;BME280;44851;45.648;9.004;2022-09-17T16:35:18;98257.72;;;22.20;15.49
59063;BME280;44851;45.648;9.004;2022-09-17T16:37:47;98273.66;;;22.20;15.83
59063;BME280;44851;45.648;9.004;2022-09-17T16:40:13;98282.66;;;22.19;15.61
59063;BME280;44851;45.648;9.004;2022-09-17T16:42:38;98278.03;;;21.79;15.51
59063;BME280;44851;45.648;9.004;2022-09-17T16:45:05;98282.09;;;21.94;15.50
59063;BME280;44851;45.648;9.004;2022-09-17T16:47:35;98287.75;;;22.09;15.62
59063;BME280;44851;45.648;9.004;2022-09-17T16:50:05;98285.34;;;22.08;15.65
59063;BME280;44851;45.648;9.004;2022-09-17T16:52:31;98296.41;;;21.93;15.83
59063;BME280;44851;45.648;9.004;2022-09-17T16:54:57;98297.22;;;21.93;16.32
59063;BME280;44851;45.648;9.004;2022-09-17T16:57:22;98296.13;;;21.83;15.99
59063;BME280;44851;45.648;9.004;2022-09-17T16:59:47;98300.78;;;21.87;16.45
59063;BME280;44851;45.648;9.004;2022-09-17T17:02:13;98303.69;;;21.44;16.01
59063;BME280;44851;45.648;9.004;2022-09-17T17:04:38;98305.81;;;21.23;15.59
59063;BME280;44851;45.648;9.004;2022-09-17T17:07:03;98313.81;;;21.47;15.80
59063;BME280;44851;45.648;9.004;2022-09-17T17:09:29;98305.69;;;21.60;15.91
59063;BME280;44851;45.648;9.004;2022-09-17T17:11:54;98317.16;;;21.42;15.65
59063;BME280;44851;45.648;9.004;2022-09-17T17:14:20;98319.63;;;21.67;15.17
59063;BME280;44851;45.648;9.004;2022-09-17T17:16:45;98324.66;;;21.45;14.96
59063;BME280;44851;45.648;9.004;2022-09-17T17:19:11;98331.81;;;21.45;15.49
59063;BME280;44851;45.648;9.004;2022-09-17T17:21:36;98333.47;;;21.27;15.29
59063;BME280;44851;45.648;9.004;2022-09-17T17:24:01;98342.00;;;21.29;15.24
59063;BME280;44851;45.648;9.004;2022-09-17T17:26:27;98338.66;;;21.22;15.10
59063;BME280;44851;45.648;9.004;2022-09-17T17:28:53;98345.41;;;21.18;15.67
59063;BME280;44851;45.648;9.004;2022-09-17T17:31:18;98346.13;;;21.25;15.49
59063;BME280;44851;45.648;9.004;2022-09-17T17:33:43;98346.13;;;21.25;15.42
59063;BME280;44851;45.648;9.004;2022-09-17T17:36:09;98347.97;;;21.25;15.18
59063;BME280;44851;45.648;9.004;2022-09-17T17:38:35;98354.03;;;21.14;15.38
59063;BME280;44851;45.648;9.004;2022-09-17T17:41:11;98360.09;;;21.21;15.01
59063;BME280;44851;45.648;9.004;2022-09-17T17:43:37;98368.38;;;21.06;15.98
59063;BME280;44851;45.648;9.004;2022-09-17T17:46:08;98376.41;;;20.99;15.13
59063;BME280;44851;45.648;9.004;2022-09-17T17:48:34;98366.91;;;20.92;15.19
59063;BME280;44851;45.648;9.004;2022-09-17T17:51:07;98375.44;;;20.75;15.36
59063;BME280;44851;45.648;9.004;2022-09-17T17:53:33;98384.13;;;20.83;15.06
59063;BME280;44851;45.648;9.004;2022-09-17T17:56:01;98383.31;;;20.82;15.26
59063;BME280;44851;45.648;9.004;2022-09-17T17:58:30;98394.56;;;20.77;15.46
59063;BME280;44851;45.648;9.004;2022-09-17T18:00:55;98399.88;;;20.77;15.37
59063;BME280;44851;45.648;9.004;2022-09-17T18:03:21;98403.06;;;20.43;15.82
59063;BME280;44851;45.648;9.004;2022-09-17T18:05:53;98407.06;;;20.52;15.34
59063;BME280;44851;45.648;9.004;2022-09-17T18:08:23;98415.00;;;20.52;15.81
59063;BME280;44851;45.648;9.004;2022-09-17T18:10:56;98418.38;;;20.41;15.28
59063;BME280;44851;45.648;9.004;2022-09-17T18:13:25;98427.88;;;20.67;15.64
59063;BME280;44851;45.648;9.004;2022-09-17T18:15:59;98422.34;;;20.50;15.37
59063;BME280;44851;45.648;9.004;2022-09-17T18:18:30;98433.34;;;20.72;15.82
59063;BME280;44851;45.648;9.004;2022-09-17T18:21:00;98440.63;;;20.76;15.70
59063;BME280;44851;45.648;9.004;2022-09-17T18:23:26;98439.47;;;20.47;15.94
59063;BME280;44851;45.648;9.004;2022-09-17T18:25:57;98445.19;;;20.44;15.94
59063;BME280;44851;45.648;9.004;2022-09-17T18:28:27;98451.63;;;20.55;15.53
59063;BME280;44851;45.648;9.004;2022-09-17T18:31:02;98453.38;;;20.43;16.02
59063;BME280;44851;45.648;9.004;2022-09-17T18:33:27;98457.50;;;20.32;15.96
59063;BME280;44851;45.648;9.004;2022-09-17T18:35:53;98459.06;;;20.08;16.28
59063;BME280;44851;45.648;9.004;2022-09-17T18:38:24;98461.53;;;20.35;15.95
59063;BME280;44851;45.648;9.004;2022-09-17T18:40:50;98469.75;;;20.27;16.45
59063;BME280;44851;45.648;9.004;2022-09-17T18:43:16;98477.59;;;20.40;16.37
59063;BME280;44851;45.648;9.004;2022-09-17T18:45:41;98475.03;;;20.27;16.16
59063;BME280;44851;45.648;9.004;2022-09-17T18:48:07;98479.25;;;20.09;16.39
59063;BME280;44851;45.648;9.004;2022-09-17T18:50:33;98486.19;;;20.04;16.45
59063;BME280;44851;45.648;9.004;2022-09-17T18:52:59;98488.63;;;20.05;16.34
59063;BME280;44851;45.648;9.004;2022-09-17T18:55:27;98495.19;;;19.96;16.86
59063;BME280;44851;45.648;9.004;2022-09-17T18:57:53;98487.88;;;19.91;16.75
59063;BME280;44851;45.648;9.004;2022-09-17T19:00:20;98494.22;;;19.84;16.72
59063;BME280;44851;45.648;9.004;2022-09-17T19:02:49;98502.56;;;19.81;16.90
59063;BME280;44851;45.648;9.004;2022-09-17T19:05:15;98506.69;;;19.77;16.54
59063;BME280;44851;45.648;9.004;2022-09-17T19:07:45;98497.81;;;19.51;16.47
59063;BME280;44851;45.648;9.004;2022-09-17T19:10:11;98511.00;;;19.64;16.79
59063;BME280;44851;45.648;9.004;2022-09-17T19:12:36;98504.31;;;19.62;16.93
59063;BME280;44851;45.648;9.004;2022-09-17T19:15:02;98513.22;;;19.67;17.17
59063;BME280;44851;45.648;9.004;2022-09-17T19:17:27;98517.53;;;19.55;16.95
59063;BME280;44851;45.648;9.004;2022-09-17T19:19:53;98520.84;;;19.31;17.16
59063;BME280;44851;45.648;9.004;2022-09-17T19:22:18;98509.59;;;19.48;16.91
59063;BME280;44851;45.648;9.004;2022-09-17T19:24:43;98512.66;;;19.52;17.13
59063;BME280;44851;45.648;9.004;2022-09-17T19:27:09;98518.97;;;19.51;16.88
59063;BME280;44851;45.648;9.004;2022-09-17T19:29:34;98518.13;;;19.57;17.13
59063;BME280;44851;45.648;9.004;2022-09-17T19:32:00;98521.78;;;19.50;17.04
59063;BME280;44851;45.648;9.004;2022-09-17T19:34:25;98528.97;;;19.23;17.17
59063;BME280;44851;45.648;9.004;2022-09-17T19:36:50;98522.28;;;19.27;17.12
59063;BME280;44851;45.648;9.004;2022-09-17T19:39:16;98521.88;;;19.30;17.19
59063;BME280;44851;45.648;9.004;2022-09-17T19:41:42;98523.34;;;18.99;17.31
59063;BME280;44851;45.648;9.004;2022-09-17T19:44:07;98524.75;;;19.15;17.18
59063;BME280;44851;45.648;9.004;2022-09-17T19:46:33;98521.09;;;18.96;17.52
59063;BME280;44851;45.648;9.004;2022-09-17T19:49:01;98532.88;;;19.00;17.19
59063;BME280;44851;45.648;9.004;2022-09-17T19:51:27;98528.81;;;19.04;16.71
59063;BME280;44851;45.648;9.004;2022-09-17T19:53:56;98540.63;;;18.88;16.95
59063;BME280;44851;45.648;9.004;2022-09-17T19:56:23;98540.00;;;18.93;17.22
59063;BME280;44851;45.648;9.004;2022-09-17T19:58:49;98547.72;;;19.08;17.02
59063;BME280;44851;45.648;9.004;2022-09-17T20:01:15;98544.06;;;18.89;16.98
59063;BME280;44851;45.648;9.004;2022-09-17T20:03:42;98536.16;;;18.82;17.22
59063;BME280;44851;45.648;9.004;2022-09-17T20:06:11;98552.34;;;18.79;17.08
59063;BME280;44851;45.648;9.004;2022-09-17T20:08:43;98554.00;;;18.80;17.24
59063;BME280;44851;45.648;9.004;2022-09-17T20:11:09;98560.94;;;18.88;17.20
59063;BME280;44851;45.648;9.004;2022-09-17T20:13:35;98555.22;;;18.84;17.46
59063;BME280;44851;45.648;9.004;2022-09-17T20:16:05;98569.81;;;18.74;17.62
59063;BME280;44851;45.648;9.004;2022-09-17T20:18:31;98565.56;;;18.73;17.54
59063;BME280;44851;45.648;9.004;2022-09-17T20:20:56;98566.56;;;18.45;17.83
59063;BME280;44851;45.648;9.004;2022-09-17T20:23:22;98567.16;;;18.47;17.40
59063;BME280;44851;45.648;9.004;2022-09-17T20:25:51;98570.81;;;18.46;17.29
59063;BME280;44851;45.648;9.004;2022-09-17T20:28:17;98572.25;;;18.49;17.32
59063;BME280;44851;45.648;9.004;2022-09-17T20:30:42;98573.88;;;18.50;17.19
59063;BME280;44851;45.648;9.004;2022-09-17T20:33:08;98584.41;;;18.43;17.35
59063;BME280;44851;45.648;9.004;2022-09-17T20:35:34;98586.91;;;18.71;17.38
59063;BME280;44851;45.648;9.004;2022-09-17T20:37:59;98586.25;;;18.49;17.79
59063;BME280;44851;45.648;9.004;2022-09-17T20:40:26;98588.53;;;18.65;17.39
59063;BME280;44851;45.648;9.004;2022-09-17T20:42:51;98597.03;;;18.74;17.66
59063;BME280;44851;45.648;9.004;2022-09-17T20:45:17;98604.56;;;18.71;17.44
59063;BME280;44851;45.648;9.004;2022-09-17T20:47:42;98595.81;;;18.63;17.65
59063;BME280;44851;45.648;9.004;2022-09-17T20:50:08;98606.16;;;18.58;17.43
59063;BME280;44851;45.648;9.004;2022-09-17T20:52:34;98602.31;;;18.67;17.79
59063;BME280;44851;45.648;9.004;2022-09-17T20:54:59;98604.94;;;18.54;17.84
59063;BME280;44851;45.648;9.004;2022-09-17T20:57:24;98617.72;;;18.44;17.90
59063;BME280;44851;45.648;9.004;2022-09-17T20:59:50;98604.75;;;18.56;18.21
59063;BME280;44851;45.648;9.004;2022-09-17T21:02:21;98617.50;;;18.39;18.46
59063;BME280;44851;45.648;9.004;2022-09-17T21:04:48;98618.91;;;18.48;18.23
59063;BME280;44851;45.648;9.004;2022-09-17T21:07:17;98620.53;;;18.36;18.03
59063;BME280;44851;45.648;9.004;2022-09-17T21:09:43;98633.13;;;18.34;18.31
59063;BME280;44851;45.648;9.004;2022-09-17T21:12:09;98629.91;;;18.45;18.35
59063;BME280;44851;45.648;9.004;2022-09-17T21:14:34;98638.78;;;18.31;18.27
59063;BME280;44851;45.648;9.004;2022-09-17T21:17:00;98629.41;;;18.22;18.18
59063;BME280;44851;45.648;9.004;2022-09-17T21:19:25;98636.56;;;18.41;18.50
59063;BME280;44851;45.648;9.004;2022-09-17T21:21:52;98636.31;;;18.23;18.50
59063;BME280;44851;45.648;9.004;2022-09-17T21:24:19;98627.31;;;18.10;18.72
59063;BME280;44851;45.648;9.004;2022-09-17T21:26:44;98648.44;;;18.10;18.54
59063;BME280;44851;45.648;9.004;2022-09-17T21:29:10;98647.50;;;18.31;18.84
59063;BME280;44851;45.648;9.004;2022-09-17T21:31:36;98642.94;;;17.71;19.07
59063;BME280;44851;45.648;9.004;2022-09-17T21:34:04;98642.66;;;17.94;19.05
59063;BME280;44851;45.648;9.004;2022-09-17T21:36:32;98650.63;;;18.00;18.85
59063;BME280;44851;45.648;9.004;2022-09-17T21:39:01;98653.09;;;18.08;19.68
59063;BME280;44851;45.648;9.004;2022-09-17T21:41:28;98650.47;;;18.15;19.16
59063;BME280;44851;45.648;9.004;2022-09-17T21:43:53;98651.13;;;18.17;18.93
59063;BME280;44851;45.648;9.004;2022-09-17T21:46:23;98658.19;;;18.16;19.47
59063;BME280;44851;45.648;9.004;2022-09-17T21:48:51;98655.56;;;17.82;19.53
59063;BME280;44851;45.648;9.004;2022-09-17T21:53:44;98655.03;;;17.93;19.76
59063;BME280;44851;45.648;9.004;2022-09-17T21:56:12;98659.75;;;18.04;19.98
59063;BME280;44851;45.648;9.004;2022-09-17T21:58:38;98656.38;;;17.82;19.43
59063;BME280;44851;45.648;9.004;2022-09-17T22:01:09;98659.28;;;17.94;19.54
59063;BME280;44851;45.648;9.004;2022-09-17T22:03:35;98659.47;;;17.92;19.85
59063;BME280;44851;45.648;9.004;2022-09-17T22:06:04;98656.84;;;17.92;19.72
59063;BME280;44851;45.648;9.004;2022-09-17T22:08:31;98662.47;;;17.83;20.06
59063;BME280;44851;45.648;9.004;2022-09-17T22:11:05;98663.28;;;17.83;19.87
59063;BME280;44851;45.648;9.004;2022-09-17T22:13:31;98662.47;;;17.83;19.84
59063;BME280;44851;45.648;9.004;2022-09-17T22:15:58;98665.56;;;17.93;20.00
59063;BME280;44851;45.648;9.004;2022-09-17T22:18:31;98662.09;;;17.86;19.74
59063;BME280;44851;45.648;9.004;2022-09-17T22:20:56;98665.78;;;17.91;20.12
59063;BME280;44851;45.648;9.004;2022-09-17T22:23:23;98662.31;;;17.91;20.26
59063;BME280;44851;45.648;9.004;2022-09-17T22:25:59;98660.84;;;17.82;20.26
59063;BME280;44851;45.648;9.004;2022-09-17T22:28:24;98670.22;;;17.91;20.29
59063;BME280;44851;45.648;9.004;2022-09-17T22:30:49;98672.53;;;17.73;20.13
59063;BME280;44851;45.648;9.004;2022-09-17T22:33:15;98677.81;;;17.73;20.32
59063;BME280;44851;45.648;9.004;2022-09-17T22:35:40;98672.56;;;17.79;20.29
59063;BME280;44851;45.648;9.004;2022-09-17T22:38:06;98668.63;;;17.62;20.33
59063;BME280;44851;45.648;9.004;2022-09-17T22:40:31;98669.59;;;17.54;20.34
59063;BME280;44851;45.648;9.004;2022-09-17T22:42:56;98665.34;;;17.53;20.41
59063;BME280;44851;45.648;9.004;2022-09-17T22:45:22;98670.38;;;17.48;20.35
59063;BME280;44851;45.648;9.004;2022-09-17T22:47:47;98669.59;;;17.54;20.69
59063;BME280;44851;45.648;9.004;2022-09-17T22:50:13;98668.78;;;17.54;20.66
59063;BME280;44851;45.648;9.004;2022-09-17T22:52:38;98665.63;;;17.65;20.52
59063;BME280;44851;45.648;9.004;2022-09-17T22:55:03;98666.31;;;17.52;20.74
59063;BME280;44851;45.648;9.004;2022-09-17T22:57:30;98668.47;;;17.70;20.58
59063;BME280;44851;45.648;9.004;2022-09-17T22:59:55;98670.97;;;17.50;20.42
59063;BME280;44851;45.648;9.004;2022-09-17T23:02:20;98677.03;;;17.44;20.56
59063;BME280;44851;45.648;9.004;2022-09-17T23:04:46;98671.56;;;17.46;20.87
59063;BME280;44851;45.648;9.004;2022-09-17T23:07:11;98678.66;;;17.45;20.89
59063;BME280;44851;45.648;9.004;2022-09-17T23:09:37;98683.22;;;17.36;21.16
59063;BME280;44851;45.648;9.004;2022-09-17T23:12:03;98678.44;;;17.47;21.22
59063;BME280;44851;45.648;9.004;2022-09-17T23:14:28;98678.41;;;17.40;20.88
59063;BME280;44851;45.648;9.004;2022-09-17T23:16:54;98677.91;;;17.30;21.14
59063;BME280;44851;45.648;9.004;2022-09-17T23:19:19;98673.91;;;17.34;21.00
59063;BME280;44851;45.648;9.004;2022-09-17T23:21:45;98676.41;;;17.42;21.34
59063;BME280;44851;45.648;9.004;2022-09-17T23:24:17;98675.16;;;17.38;21.34
59063;BME280;44851;45.648;9.004;2022-09-17T23:26:43;98676.41;;;17.42;21.53
59063;BME280;44851;45.648;9.004;2022-09-17T23:29:08;98683.88;;;17.38;21.64
59063;BME280;44851;45.648;9.004;2022-09-17T23:31:34;98675.91;;;17.32;21.22
59063;BME280;44851;45.648;9.004;2022-09-17T23:33:59;98677.31;;;17.28;21.64
59063;BME280;44851;45.648;9.004;2022-09-17T23:36:27;98677.91;;;17.30;21.61
59063;BME280;44851;45.648;9.004;2022-09-17T23:38:54;98679.94;;;17.28;21.94
59063;BME280;44851;45.648;9.004;2022-09-17T23:41:25;98677.31;;;17.28;21.78
59063;BME280;44851;45.648;9.004;2022-09-17T23:43:54;98682.69;;;17.20;22.06
59063;BME280;44851;45.648;9.004;2022-09-17T23:46:21;98677.53;;;17.33;22.24
59063;BME280;44851;45.648;9.004;2022-09-17T23:48:47;98677.31;;;17.28;22.16
59063;BME280;44851;45.648;9.004;2022-09-17T23:51:13;98676.03;;;17.24;22.43
59063;BME280;44851;45.648;9.004;2022-09-17T23:53:41;98675.94;;;17.10;22.94
59063;BME280;44851;45.648;9.004;2022-09-17T23:56:14;98681.44;;;16.94;22.62
59063;BME280;44851;45.648;9.004;2022-09-17T23:58:40;98678.97;;;16.93;22.84
